sensor_id;sensor_type;location;lat;lon;timestamp;temperature;humidity
21216;DHT22;10765;50.954;5.322;2022-09-09T00:00:18;15.30;1.00
21216;DHT22;10765;50.954;5.322;2022-09-09T00:02:52;15.20;1.00
21216;DHT22;10765;50.954;5.322;2022-09-09T00:05:29;15.20;1.00
21216;DHT22;10765;50.954;5.322;2022-09-09T00:08:00;15.20;1.00
21216;DHT22;10765;50.954;5.322;2022-09-09T00:10:31;15.20;1.00
21216;DHT22;10765;50.954;5.322;2022-09-09T00:13:04;15.30;1.00
21216;DHT22;10765;50.954;5.322;2022-09-09T00:15:38;15.30;1.00
21216;DHT22;10765;50.954;5.322;2022-09-09T00:18:14;15.20;99.90
21216;DHT22;10765;50.954;5.322;2022-09-09T00:20:49;15.30;1.00
21216;DHT22;10765;50.954;5.322;2022-09-09T00:23:24;15.20;99.90
21216;DHT22;10765;50.954;5.322;2022-09-09T00:26:02;15.20;99.90
21216;DHT22;10765;50.954;5.322;2022-09-09T00:28:33;15.10;1.00
21216;DHT22;10765;50.954;5.322;2022-09-09T00:31:11;15.00;1.00
21216;DHT22;10765;50.954;5.322;2022-09-09T00:33:39;15.10;99.90
21216;DHT22;10765;50.954;5.322;2022-09-09T00:36:13;15.00;1.00
21216;DHT22;10765;50.954;5.322;2022-09-09T00:38:43;15.00;1.00
21216;DHT22;10765;50.954;5.322;2022-09-09T00:41:17;15.00;1.00
21216;DHT22;10765;50.954;5.322;2022-09-09T00:43:55;14.90;99.90
21216;DHT22;10765;50.954;5.322;2022-09-09T00:46:51;14.80;1.00
21216;DHT22;10765;50.954;5.322;2022-09-09T00:49:30;14.90;1.00
21216;DHT22;10765;50.954;5.322;2022-09-09T00:52:13;14.90;99.90
21216;DHT22;10765;50.954;5.322;2022-09-09T00:54:51;14.80;99.90
21216;DHT22;10765;50.954;5.322;2022-09-09T00:57:26;14.80;1.00
21216;DHT22;10765;50.954;5.322;2022-09-09T00:59:59;14.60;99.90
21216;DHT22;10765;50.954;5.322;2022-09-09T01:02:35;14.60;1.00
21216;DHT22;10765;50.954;5.322;2022-09-09T01:05:10;14.50;99.90
21216;DHT22;10765;50.954;5.322;2022-09-09T01:07:40;14.50;99.90
21216;DHT22;10765;50.954;5.322;2022-09-09T01:10:17;14.40;99.90
21216;DHT22;10765;50.954;5.322;2022-09-09T01:12:49;14.40;99.90
21216;DHT22;10765;50.954;5.322;2022-09-09T01:15:22;14.50;1.00
21216;DHT22;10765;50.954;5.322;2022-09-09T01:17:56;14.50;1.00
21216;DHT22;10765;50.954;5.322;2022-09-09T01:20:27;14.60;1.00
21216;DHT22;10765;50.954;5.322;2022-09-09T01:23:25;14.70;1.00
21216;DHT22;10765;50.954;5.322;2022-09-09T01:26:12;14.80;1.00
21216;DHT22;10765;50.954;5.322;2022-09-09T01:28:40;14.80;1.00
21216;DHT22;10765;50.954;5.322;2022-09-09T01:31:12;14.90;1.00
21216;DHT22;10765;50.954;5.322;2022-09-09T01:33:41;14.90;1.00
21216;DHT22;10765;50.954;5.322;2022-09-09T01:36:11;14.90;1.00
21216;DHT22;10765;50.954;5.322;2022-09-09T01:38:40;14.90;1.00
21216;DHT22;10765;50.954;5.322;2022-09-09T01:41:08;14.80;1.00
21216;DHT22;10765;50.954;5.322;2022-09-09T01:43:35;14.80;99.90
21216;DHT22;10765;50.954;5.322;2022-09-09T01:46:02;14.80;90.10
21216;DHT22;10765;50.954;5.322;2022-09-09T01:48:29;14.70;99.90
21216;DHT22;10765;50.954;5.322;2022-09-09T01:50:56;14.80;99.90
21216;DHT22;10765;50.954;5.322;2022-09-09T01:53:23;14.80;99.90
21216;DHT22;10765;50.954;5.322;2022-09-09T01:55:58;14.80;99.90
21216;DHT22;10765;50.954;5.322;2022-09-09T01:58:34;14.80;99.90
21216;DHT22;10765;50.954;5.322;2022-09-09T02:01:12;14.90;99.90
21216;DHT22;10765;50.954;5.322;2022-09-09T02:03:46;14.90;99.90
21216;DHT22;10765;50.954;5.322;2022-09-09T02:06:22;15.00;99.90
21216;DHT22;10765;50.954;5.322;2022-09-09T02:08:52;15.00;99.90
21216;DHT22;10765;50.954;5.322;2022-09-09T02:11:23;15.00;99.90
21216;DHT22;10765;50.954;5.322;2022-09-09T02:13:54;14.90;99.90
21216;DHT22;10765;50.954;5.322;2022-09-09T02:16:26;14.90;99.90
21216;DHT22;10765;50.954;5.322;2022-09-09T02:18:57;14.90;99.90
21216;DHT22;10765;50.954;5.322;2022-09-09T02:21:28;14.90;99.90
21216;DHT22;10765;50.954;5.322;2022-09-09T02:23:58;14.90;99.90
21216;DHT22;10765;50.954;5.322;2022-09-09T02:26:25;14.90;99.90
21216;DHT22;10765;50.954;5.322;2022-09-09T02:28:57;14.90;99.90
21216;DHT22;10765;50.954;5.322;2022-09-09T02:31:25;14.90;99.90
21216;DHT22;10765;50.954;5.322;2022-09-09T02:33:55;14.90;99.90
21216;DHT22;10765;50.954;5.322;2022-09-09T02:36:25;14.90;99.90
21216;DHT22;10765;50.954;5.322;2022-09-09T02:38:53;14.80;99.90
21216;DHT22;10765;50.954;5.322;2022-09-09T02:41:26;14.80;99.90
21216;DHT22;10765;50.954;5.322;2022-09-09T02:43:55;14.80;99.90
21216;DHT22;10765;50.954;5.322;2022-09-09T02:46:32;14.80;99.90
21216;DHT22;10765;50.954;5.322;2022-09-09T02:49:05;14.70;99.90
21216;DHT22;10765;50.954;5.322;2022-09-09T02:51:39;14.80;99.90
21216;DHT22;10765;50.954;5.322;2022-09-09T02:54:20;14.80;99.90
21216;DHT22;10765;50.954;5.322;2022-09-09T02:56:52;14.70;99.90
21216;DHT22;10765;50.954;5.322;2022-09-09T02:59:21;14.80;99.90
21216;DHT22;10765;50.954;5.322;2022-09-09T03:01:49;14.80;99.90
21216;DHT22;10765;50.954;5.322;2022-09-09T03:04:16;14.80;99.90
21216;DHT22;10765;50.954;5.322;2022-09-09T03:06:43;14.80;99.90
21216;DHT22;10765;50.954;5.322;2022-09-09T03:09:10;14.70;99.90
21216;DHT22;10765;50.954;5.322;2022-09-09T03:11:37;14.70;99.90
21216;DHT22;10765;50.954;5.322;2022-09-09T03:14:04;14.70;99.90
21216;DHT22;10765;50.954;5.322;2022-09-09T03:16:32;14.60;99.90
21216;DHT22;10765;50.954;5.322;2022-09-09T03:18:59;14.70;99.90
21216;DHT22;10765;50.954;5.322;2022-09-09T03:21:26;14.70;99.90
21216;DHT22;10765;50.954;5.322;2022-09-09T03:23:53;14.80;99.90
21216;DHT22;10765;50.954;5.322;2022-09-09T03:26:21;14.80;99.90
21216;DHT22;10765;50.954;5.322;2022-09-09T03:28:48;14.90;99.90
21216;DHT22;10765;50.954;5.322;2022-09-09T03:31:17;14.90;99.90
21216;DHT22;10765;50.954;5.322;2022-09-09T03:33:46;15.00;99.90
21216;DHT22;10765;50.954;5.322;2022-09-09T03:36:13;15.10;99.90
21216;DHT22;10765;50.954;5.322;2022-09-09T03:38:40;15.20;99.90
21216;DHT22;10765;50.954;5.322;2022-09-09T03:41:07;15.20;99.90
21216;DHT22;10765;50.954;5.322;2022-09-09T03:43:34;15.30;99.90
21216;DHT22;10765;50.954;5.322;2022-09-09T03:46:03;15.30;99.90
21216;DHT22;10765;50.954;5.322;2022-09-09T03:48:30;15.30;99.90
21216;DHT22;10765;50.954;5.322;2022-09-09T03:50:58;15.30;99.90
21216;DHT22;10765;50.954;5.322;2022-09-09T03:53:27;15.30;99.90
21216;DHT22;10765;50.954;5.322;2022-09-09T03:55:55;15.30;99.90
21216;DHT22;10765;50.954;5.322;2022-09-09T03:58:26;15.30;99.90
21216;DHT22;10765;50.954;5.322;2022-09-09T04:00:54;15.30;99.90
21216;DHT22;10765;50.954;5.322;2022-09-09T04:03:22;15.30;99.90
21216;DHT22;10765;50.954;5.322;2022-09-09T04:05:50;15.30;99.90
21216;DHT22;10765;50.954;5.322;2022-09-09T04:08:19;15.30;99.90
21216;DHT22;10765;50.954;5.322;2022-09-09T04:10:46;15.30;99.90
21216;DHT22;10765;50.954;5.322;2022-09-09T04:13:14;15.20;99.90
21216;DHT22;10765;50.954;5.322;2022-09-09T04:15:43;15.20;99.90
21216;DHT22;10765;50.954;5.322;2022-09-09T04:18:11;15.10;99.90
21216;DHT22;10765;50.954;5.322;2022-09-09T04:20:38;15.10;99.90
21216;DHT22;10765;50.954;5.322;2022-09-09T04:23:05;15.10;99.90
21216;DHT22;10765;50.954;5.322;2022-09-09T04:25:33;15.10;99.90
21216;DHT22;10765;50.954;5.322;2022-09-09T04:28:00;15.20;99.90
21216;DHT22;10765;50.954;5.322;2022-09-09T04:30:28;15.10;99.90
21216;DHT22;10765;50.954;5.322;2022-09-09T04:32:54;15.00;99.90
21216;DHT22;10765;50.954;5.322;2022-09-09T04:35:22;15.00;99.90
21216;DHT22;10765;50.954;5.322;2022-09-09T04:37:49;15.00;99.90
21216;DHT22;10765;50.954;5.322;2022-09-09T04:40:16;15.00;99.90
21216;DHT22;10765;50.954;5.322;2022-09-09T04:42:45;15.00;99.90
21216;DHT22;10765;50.954;5.322;2022-09-09T04:45:13;15.00;99.90
21216;DHT22;10765;50.954;5.322;2022-09-09T04:47:40;14.90;99.90
21216;DHT22;10765;50.954;5.322;2022-09-09T04:50:08;14.90;99.90
21216;DHT22;10765;50.954;5.322;2022-09-09T04:52:35;14.90;99.90
21216;DHT22;10765;50.954;5.322;2022-09-09T04:55:03;14.90;99.90
21216;DHT22;10765;50.954;5.322;2022-09-09T04:57:30;14.80;99.90
21216;DHT22;10765;50.954;5.322;2022-09-09T04:59:59;14.80;99.90
21216;DHT22;10765;50.954;5.322;2022-09-09T05:02:27;14.80;99.90
21216;DHT22;10765;50.954;5.322;2022-09-09T05:04:55;14.80;99.90
21216;DHT22;10765;50.954;5.322;2022-09-09T05:07:22;14.80;99.90
21216;DHT22;10765;50.954;5.322;2022-09-09T05:09:49;14.80;99.90
21216;DHT22;10765;50.954;5.322;2022-09-09T05:12:16;14.80;99.90
21216;DHT22;10765;50.954;5.322;2022-09-09T05:14:43;14.90;99.90
21216;DHT22;10765;50.954;5.322;2022-09-09T05:17:11;14.90;99.90
21216;DHT22;10765;50.954;5.322;2022-09-09T05:19:38;14.90;99.90
21216;DHT22;10765;50.954;5.322;2022-09-09T05:22:05;15.00;99.90
21216;DHT22;10765;50.954;5.322;2022-09-09T05:24:33;15.00;99.90
21216;DHT22;10765;50.954;5.322;2022-09-09T05:27:00;15.00;99.90
21216;DHT22;10765;50.954;5.322;2022-09-09T05:29:28;15.00;99.90
21216;DHT22;10765;50.954;5.322;2022-09-09T05:31:55;15.10;99.90
21216;DHT22;10765;50.954;5.322;2022-09-09T05:34:23;15.10;99.90
21216;DHT22;10765;50.954;5.322;2022-09-09T05:36:50;15.20;99.90
21216;DHT22;10765;50.954;5.322;2022-09-09T05:39:17;15.30;99.90
21216;DHT22;10765;50.954;5.322;2022-09-09T05:41:44;15.40;99.90
21216;DHT22;10765;50.954;5.322;2022-09-09T05:44:11;15.50;99.90
21216;DHT22;10765;50.954;5.322;2022-09-09T05:46:39;15.70;99.90
21216;DHT22;10765;50.954;5.322;2022-09-09T05:49:05;15.70;99.90
21216;DHT22;10765;50.954;5.322;2022-09-09T05:51:35;15.80;99.90
21216;DHT22;10765;50.954;5.322;2022-09-09T05:54:02;15.70;99.90
21216;DHT22;10765;50.954;5.322;2022-09-09T05:56:29;15.70;99.90
21216;DHT22;10765;50.954;5.322;2022-09-09T05:58:58;15.80;99.90
21216;DHT22;10765;50.954;5.322;2022-09-09T06:01:27;15.80;99.90
21216;DHT22;10765;50.954;5.322;2022-09-09T06:03:56;15.90;99.90
21216;DHT22;10765;50.954;5.322;2022-09-09T06:06:24;16.00;99.90
21216;DHT22;10765;50.954;5.322;2022-09-09T06:08:54;16.10;99.90
21216;DHT22;10765;50.954;5.322;2022-09-09T06:11:24;16.20;99.90
21216;DHT22;10765;50.954;5.322;2022-09-09T06:13:52;16.30;99.90
21216;DHT22;10765;50.954;5.322;2022-09-09T06:16:21;16.30;99.90
21216;DHT22;10765;50.954;5.322;2022-09-09T06:18:49;16.30;99.90
21216;DHT22;10765;50.954;5.322;2022-09-09T06:21:18;16.60;99.90
21216;DHT22;10765;50.954;5.322;2022-09-09T06:23:46;16.70;1.00
21216;DHT22;10765;50.954;5.322;2022-09-09T06:26:16;16.80;99.90
21216;DHT22;10765;50.954;5.322;2022-09-09T06:28:45;16.90;1.00
21216;DHT22;10765;50.954;5.322;2022-09-09T06:31:14;17.10;1.00
21216;DHT22;10765;50.954;5.322;2022-09-09T06:33:43;17.00;99.90
21216;DHT22;10765;50.954;5.322;2022-09-09T06:36:12;17.10;1.00
21216;DHT22;10765;50.954;5.322;2022-09-09T06:38:40;17.60;1.00
21216;DHT22;10765;50.954;5.322;2022-09-09T06:41:08;18.90;90.80
21216;DHT22;10765;50.954;5.322;2022-09-09T06:43:37;20.00;22.10
21216;DHT22;10765;50.954;5.322;2022-09-09T06:46:05;21.00;1.00
21216;DHT22;10765;50.954;5.322;2022-09-09T06:48:33;21.90;99.90
21216;DHT22;10765;50.954;5.322;2022-09-09T06:51:02;22.90;99.90
21216;DHT22;10765;50.954;5.322;2022-09-09T06:53:30;23.20;99.90
21216;DHT22;10765;50.954;5.322;2022-09-09T06:55:59;23.20;99.90
21216;DHT22;10765;50.954;5.322;2022-09-09T06:58:26;22.80;99.90
21216;DHT22;10765;50.954;5.322;2022-09-09T07:01:02;22.10;99.90
21216;DHT22;10765;50.954;5.322;2022-09-09T07:03:28;21.30;99.90
21216;DHT22;10765;50.954;5.322;2022-09-09T07:05:56;20.70;99.90
21216;DHT22;10765;50.954;5.322;2022-09-09T07:08:23;20.00;1.00
21216;DHT22;10765;50.954;5.322;2022-09-09T07:10:50;20.00;1.00
21216;DHT22;10765;50.954;5.322;2022-09-09T07:13:19;20.00;1.00
21216;DHT22;10765;50.954;5.322;2022-09-09T07:15:49;19.90;1.00
21216;DHT22;10765;50.954;5.322;2022-09-09T07:18:18;19.50;1.00
21216;DHT22;10765;50.954;5.322;2022-09-09T07:20:53;19.30;1.00
21216;DHT22;10765;50.954;5.322;2022-09-09T07:23:20;19.00;1.00
21216;DHT22;10765;50.954;5.322;2022-09-09T07:25:47;19.00;1.00
21216;DHT22;10765;50.954;5.322;2022-09-09T07:28:15;19.00;1.00
21216;DHT22;10765;50.954;5.322;2022-09-09T07:30:42;20.00;1.00
21216;DHT22;10765;50.954;5.322;2022-09-09T07:33:09;20.80;1.00
21216;DHT22;10765;50.954;5.322;2022-09-09T07:35:38;20.70;99.90
21216;DHT22;10765;50.954;5.322;2022-09-09T07:38:05;20.90;99.90
21216;DHT22;10765;50.954;5.322;2022-09-09T07:40:32;21.20;99.90
21216;DHT22;10765;50.954;5.322;2022-09-09T07:42:59;22.00;99.90
21216;DHT22;10765;50.954;5.322;2022-09-09T07:45:26;21.90;99.90
21216;DHT22;10765;50.954;5.322;2022-09-09T07:47:54;21.60;99.90
21216;DHT22;10765;50.954;5.322;2022-09-09T07:50:22;21.30;99.90
21216;DHT22;10765;50.954;5.322;2022-09-09T07:52:50;20.90;99.90
21216;DHT22;10765;50.954;5.322;2022-09-09T07:55:19;20.80;99.90
21216;DHT22;10765;50.954;5.322;2022-09-09T07:57:45;20.60;99.90
21216;DHT22;10765;50.954;5.322;2022-09-09T08:00:14;20.50;99.90
21216;DHT22;10765;50.954;5.322;2022-09-09T08:02:41;19.70;1.00
21216;DHT22;10765;50.954;5.322;2022-09-09T08:05:08;19.40;1.00
21216;DHT22;10765;50.954;5.322;2022-09-09T08:07:35;19.20;1.00
21216;DHT22;10765;50.954;5.322;2022-09-09T08:10:03;19.10;1.00
21216;DHT22;10765;50.954;5.322;2022-09-09T08:12:31;19.00;1.00
21216;DHT22;10765;50.954;5.322;2022-09-09T08:14:58;18.80;1.00
21216;DHT22;10765;50.954;5.322;2022-09-09T08:17:25;18.70;1.00
21216;DHT22;10765;50.954;5.322;2022-09-09T08:19:52;18.90;1.00
21216;DHT22;10765;50.954;5.322;2022-09-09T08:22:19;18.80;1.00
21216;DHT22;10765;50.954;5.322;2022-09-09T08:24:47;18.50;1.00
21216;DHT22;10765;50.954;5.322;2022-09-09T08:27:15;18.50;1.00
21216;DHT22;10765;50.954;5.322;2022-09-09T08:29:42;18.40;1.00
21216;DHT22;10765;50.954;5.322;2022-09-09T08:32:10;18.40;1.00
21216;DHT22;10765;50.954;5.322;2022-09-09T08:34:36;18.40;1.00
21216;DHT22;10765;50.954;5.322;2022-09-09T08:37:03;18.30;1.00
21216;DHT22;10765;50.954;5.322;2022-09-09T08:39:30;18.30;1.00
21216;DHT22;10765;50.954;5.322;2022-09-09T08:42:16;18.40;1.00
21216;DHT22;10765;50.954;5.322;2022-09-09T08:44:59;18.40;1.00
21216;DHT22;10765;50.954;5.322;2022-09-09T08:47:35;18.40;1.00
21216;DHT22;10765;50.954;5.322;2022-09-09T08:50:16;18.30;1.00
21216;DHT22;10765;50.954;5.322;2022-09-09T08:52:51;18.20;1.00
21216;DHT22;10765;50.954;5.322;2022-09-09T08:55:25;18.20;29.50
21216;DHT22;10765;50.954;5.322;2022-09-09T08:57:57;17.90;93.80
21216;DHT22;10765;50.954;5.322;2022-09-09T09:00:32;17.90;99.90
21216;DHT22;10765;50.954;5.322;2022-09-09T09:03:05;18.00;99.90
21216;DHT22;10765;50.954;5.322;2022-09-09T09:05:40;18.10;99.90
21216;DHT22;10765;50.954;5.322;2022-09-09T09:08:17;18.10;99.90
21216;DHT22;10765;50.954;5.322;2022-09-09T09:10:49;18.10;99.90
21216;DHT22;10765;50.954;5.322;2022-09-09T09:13:20;18.20;50.80
21216;DHT22;10765;50.954;5.322;2022-09-09T09:15:52;18.20;87.00
21216;DHT22;10765;50.954;5.322;2022-09-09T09:18:20;18.10;14.60
21216;DHT22;10765;50.954;5.322;2022-09-09T09:21:02;18.20;69.00
21216;DHT22;10765;50.954;5.322;2022-09-09T09:23:37;18.10;94.00
21216;DHT22;10765;50.954;5.322;2022-09-09T09:26:07;18.00;1.00
21216;DHT22;10765;50.954;5.322;2022-09-09T09:28:37;18.20;1.00
21216;DHT22;10765;50.954;5.322;2022-09-09T09:31:08;18.50;1.00
21216;DHT22;10765;50.954;5.322;2022-09-09T09:33:47;18.60;1.00
21216;DHT22;10765;50.954;5.322;2022-09-09T09:36:15;18.90;1.00
21216;DHT22;10765;50.954;5.322;2022-09-09T09:38:52;19.10;1.00
21216;DHT22;10765;50.954;5.322;2022-09-09T09:41:31;19.00;1.00
21216;DHT22;10765;50.954;5.322;2022-09-09T09:44:01;19.30;1.00
21216;DHT22;10765;50.954;5.322;2022-09-09T09:46:30;19.70;1.00
21216;DHT22;10765;50.954;5.322;2022-09-09T09:48:58;19.70;1.00
21216;DHT22;10765;50.954;5.322;2022-09-09T09:51:26;19.60;1.00
21216;DHT22;10765;50.954;5.322;2022-09-09T09:53:54;19.60;1.00
21216;DHT22;10765;50.954;5.322;2022-09-09T09:56:31;19.70;1.00
21216;DHT22;10765;50.954;5.322;2022-09-09T09:59:00;19.90;1.00
21216;DHT22;10765;50.954;5.322;2022-09-09T10:01:28;19.40;1.00
21216;DHT22;10765;50.954;5.322;2022-09-09T10:03:58;19.20;1.00
21216;DHT22;10765;50.954;5.322;2022-09-09T10:06:33;18.40;99.90
21216;DHT22;10765;50.954;5.322;2022-09-09T10:09:02;17.60;1.00
21216;DHT22;10765;50.954;5.322;2022-09-09T10:11:41;17.10;1.00
21216;DHT22;10765;50.954;5.322;2022-09-09T10:14:18;16.90;1.00
21216;DHT22;10765;50.954;5.322;2022-09-09T10:16:56;16.70;99.90
21216;DHT22;10765;50.954;5.322;2022-09-09T10:19:31;16.60;1.00
21216;DHT22;10765;50.954;5.322;2022-09-09T10:22:09;16.50;1.00
21216;DHT22;10765;50.954;5.322;2022-09-09T10:24:53;16.50;1.00
21216;DHT22;10765;50.954;5.322;2022-09-09T10:27:27;16.50;99.90
21216;DHT22;10765;50.954;5.322;2022-09-09T10:30:09;16.70;1.00
21216;DHT22;10765;50.954;5.322;2022-09-09T10:32:45;16.60;1.00
21216;DHT22;10765;50.954;5.322;2022-09-09T10:35:22;16.40;14.60
21216;DHT22;10765;50.954;5.322;2022-09-09T10:38:15;16.40;1.00
21216;DHT22;10765;50.954;5.322;2022-09-09T10:40:59;16.40;1.00
21216;DHT22;10765;50.954;5.322;2022-09-09T10:46:29;16.40;1.00
21216;DHT22;10765;50.954;5.322;2022-09-09T10:49:11;16.50;1.00
21216;DHT22;10765;50.954;5.322;2022-09-09T10:51:48;16.60;99.90
21216;DHT22;10765;50.954;5.322;2022-09-09T10:54:32;17.10;99.90
21216;DHT22;10765;50.954;5.322;2022-09-09T10:57:08;17.30;1.00
21216;DHT22;10765;50.954;5.322;2022-09-09T10:59:39;17.50;1.00
21216;DHT22;10765;50.954;5.322;2022-09-09T11:02:13;17.70;99.90
21216;DHT22;10765;50.954;5.322;2022-09-09T11:04:47;18.10;99.90
21216;DHT22;10765;50.954;5.322;2022-09-09T11:07:24;18.20;99.90
21216;DHT22;10765;50.954;5.322;2022-09-09T11:09:56;18.80;1.00
21216;DHT22;10765;50.954;5.322;2022-09-09T11:12:27;18.70;99.90
21216;DHT22;10765;50.954;5.322;2022-09-09T11:14:59;18.40;1.00
21216;DHT22;10765;50.954;5.322;2022-09-09T11:17:35;18.10;1.00
21216;DHT22;10765;50.954;5.322;2022-09-09T11:20:06;18.10;1.00
21216;DHT22;10765;50.954;5.322;2022-09-09T11:22:35;18.20;1.00
21216;DHT22;10765;50.954;5.322;2022-09-09T11:25:10;18.40;99.90
21216;DHT22;10765;50.954;5.322;2022-09-09T11:27:53;18.70;12.90
21216;DHT22;10765;50.954;5.322;2022-09-09T11:30:22;18.80;1.00
21216;DHT22;10765;50.954;5.322;2022-09-09T11:35:59;19.10;99.90
21216;DHT22;10765;50.954;5.322;2022-09-09T11:38:29;19.80;1.00
21216;DHT22;10765;50.954;5.322;2022-09-09T11:40:59;19.50;1.00
21216;DHT22;10765;50.954;5.322;2022-09-09T11:43:30;19.30;99.90
21216;DHT22;10765;50.954;5.322;2022-09-09T11:45:59;19.50;1.00
21216;DHT22;10765;50.954;5.322;2022-09-09T11:48:34;19.50;1.00
21216;DHT22;10765;50.954;5.322;2022-09-09T11:51:04;19.00;1.00
21216;DHT22;10765;50.954;5.322;2022-09-09T11:53:33;19.00;99.90
21216;DHT22;10765;50.954;5.322;2022-09-09T11:56:09;19.00;1.00
21216;DHT22;10765;50.954;5.322;2022-09-09T11:58:43;18.80;1.00
21216;DHT22;10765;50.954;5.322;2022-09-09T12:01:35;18.60;1.00
21216;DHT22;10765;50.954;5.322;2022-09-09T12:04:17;18.60;66.10
21216;DHT22;10765;50.954;5.322;2022-09-09T12:06:51;18.80;82.40
21216;DHT22;10765;50.954;5.322;2022-09-09T12:09:23;18.70;1.00
21216;DHT22;10765;50.954;5.322;2022-09-09T12:11:51;18.50;1.00
21216;DHT22;10765;50.954;5.322;2022-09-09T12:14:34;18.70;1.00
21216;DHT22;10765;50.954;5.322;2022-09-09T12:17:10;19.10;99.90
21216;DHT22;10765;50.954;5.322;2022-09-09T12:19:45;19.00;99.90
21216;DHT22;10765;50.954;5.322;2022-09-09T12:22:21;18.70;1.00
21216;DHT22;10765;50.954;5.322;2022-09-09T12:24:55;18.40;99.90
21216;DHT22;10765;50.954;5.322;2022-09-09T12:27:27;18.10;1.00
21216;DHT22;10765;50.954;5.322;2022-09-09T12:30:01;18.10;99.90
21216;DHT22;10765;50.954;5.322;2022-09-09T12:32:29;18.20;99.90
21216;DHT22;10765;50.954;5.322;2022-09-09T12:35:03;18.60;1.00
21216;DHT22;10765;50.954;5.322;2022-09-09T12:37:34;19.70;99.90
21216;DHT22;10765;50.954;5.322;2022-09-09T12:40:04;21.20;1.00
21216;DHT22;10765;50.954;5.322;2022-09-09T12:42:31;22.60;99.90
21216;DHT22;10765;50.954;5.322;2022-09-09T12:45:00;24.40;99.90
21216;DHT22;10765;50.954;5.322;2022-09-09T12:47:37;25.60;99.90
21216;DHT22;10765;50.954;5.322;2022-09-09T12:50:15;27.00;99.90
21216;DHT22;10765;50.954;5.322;2022-09-09T12:52:42;28.70;99.90
21216;DHT22;10765;50.954;5.322;2022-09-09T12:55:18;28.50;99.90
21216;DHT22;10765;50.954;5.322;2022-09-09T12:57:47;26.40;99.90
21216;DHT22;10765;50.954;5.322;2022-09-09T13:00:18;27.10;99.90
21216;DHT22;10765;50.954;5.322;2022-09-09T13:02:48;26.80;99.90
21216;DHT22;10765;50.954;5.322;2022-09-09T13:05:20;25.80;99.90
21216;DHT22;10765;50.954;5.322;2022-09-09T13:07:47;24.50;99.90
21216;DHT22;10765;50.954;5.322;2022-09-09T13:10:19;23.70;99.90
21216;DHT22;10765;50.954;5.322;2022-09-09T13:12:47;25.40;99.90
21216;DHT22;10765;50.954;5.322;2022-09-09T13:15:20;25.70;99.90
21216;DHT22;10765;50.954;5.322;2022-09-09T13:17:56;24.70;99.90
21216;DHT22;10765;50.954;5.322;2022-09-09T13:20:25;23.90;99.90
21216;DHT22;10765;50.954;5.322;2022-09-09T13:22:53;23.30;99.90
21216;DHT22;10765;50.954;5.322;2022-09-09T13:25:24;23.40;99.90
21216;DHT22;10765;50.954;5.322;2022-09-09T13:27:55;22.80;99.90
21216;DHT22;10765;50.954;5.322;2022-09-09T13:30:25;22.50;99.90
21216;DHT22;10765;50.954;5.322;2022-09-09T13:33:18;22.60;99.90
21216;DHT22;10765;50.954;5.322;2022-09-09T13:35:49;22.30;99.90
21216;DHT22;10765;50.954;5.322;2022-09-09T13:38:17;22.40;99.90
21216;DHT22;10765;50.954;5.322;2022-09-09T13:40:57;22.20;99.90
21216;DHT22;10765;50.954;5.322;2022-09-09T13:43:28;21.80;99.90
21216;DHT22;10765;50.954;5.322;2022-09-09T13:45:56;21.60;99.90
21216;DHT22;10765;50.954;5.322;2022-09-09T13:48:23;22.10;99.90
21216;DHT22;10765;50.954;5.322;2022-09-09T13:50:57;22.70;99.90
21216;DHT22;10765;50.954;5.322;2022-09-09T13:53:24;22.30;99.90
21216;DHT22;10765;50.954;5.322;2022-09-09T13:55:51;22.70;99.90
21216;DHT22;10765;50.954;5.322;2022-09-09T13:58:19;23.60;99.90
21216;DHT22;10765;50.954;5.322;2022-09-09T14:00:47;23.70;99.90
21216;DHT22;10765;50.954;5.322;2022-09-09T14:03:15;22.90;99.90
21216;DHT22;10765;50.954;5.322;2022-09-09T14:05:42;22.70;99.90
21216;DHT22;10765;50.954;5.322;2022-09-09T14:08:17;22.60;99.90
21216;DHT22;10765;50.954;5.322;2022-09-09T14:10:47;21.90;99.90
21216;DHT22;10765;50.954;5.322;2022-09-09T14:13:14;21.50;99.90
21216;DHT22;10765;50.954;5.322;2022-09-09T14:15:41;21.50;99.90
21216;DHT22;10765;50.954;5.322;2022-09-09T14:18:11;21.70;99.90
21216;DHT22;10765;50.954;5.322;2022-09-09T14:20:38;21.60;99.90
21216;DHT22;10765;50.954;5.322;2022-09-09T14:23:05;21.60;99.90
21216;DHT22;10765;50.954;5.322;2022-09-09T14:25:34;21.60;99.90
21216;DHT22;10765;50.954;5.322;2022-09-09T14:28:01;21.40;99.90
21216;DHT22;10765;50.954;5.322;2022-09-09T14:30:28;21.40;99.90
21216;DHT22;10765;50.954;5.322;2022-09-09T14:32:55;21.30;99.90
21216;DHT22;10765;50.954;5.322;2022-09-09T14:35:22;21.10;99.90
21216;DHT22;10765;50.954;5.322;2022-09-09T14:37:49;21.50;99.90
21216;DHT22;10765;50.954;5.322;2022-09-09T14:40:16;21.90;99.90
21216;DHT22;10765;50.954;5.322;2022-09-09T14:42:44;21.60;99.90
21216;DHT22;10765;50.954;5.322;2022-09-09T14:45:11;21.30;99.90
21216;DHT22;10765;50.954;5.322;2022-09-09T14:47:38;21.40;99.90
21216;DHT22;10765;50.954;5.322;2022-09-09T14:50:06;21.50;99.90
21216;DHT22;10765;50.954;5.322;2022-09-09T14:52:33;21.80;99.90
21216;DHT22;10765;50.954;5.322;2022-09-09T14:55:00;21.60;99.90
21216;DHT22;10765;50.954;5.322;2022-09-09T14:57:27;21.50;99.90
21216;DHT22;10765;50.954;5.322;2022-09-09T14:59:56;21.40;99.90
21216;DHT22;10765;50.954;5.322;2022-09-09T15:02:22;21.30;99.90
21216;DHT22;10765;50.954;5.322;2022-09-09T15:04:49;21.50;99.90
21216;DHT22;10765;50.954;5.322;2022-09-09T15:07:18;21.40;99.90
21216;DHT22;10765;50.954;5.322;2022-09-09T15:09:45;21.30;99.90
21216;DHT22;10765;50.954;5.322;2022-09-09T15:12:13;21.30;99.90
21216;DHT22;10765;50.954;5.322;2022-09-09T15:14:41;21.30;99.90
21216;DHT22;10765;50.954;5.322;2022-09-09T15:17:09;21.20;99.90
21216;DHT22;10765;50.954;5.322;2022-09-09T15:19:36;21.50;99.90
21216;DHT22;10765;50.954;5.322;2022-09-09T15:22:03;21.70;99.90
21216;DHT22;10765;50.954;5.322;2022-09-09T15:24:32;21.50;99.90
21216;DHT22;10765;50.954;5.322;2022-09-09T15:26:59;21.50;99.90
21216;DHT22;10765;50.954;5.322;2022-09-09T15:29:27;21.30;99.90
21216;DHT22;10765;50.954;5.322;2022-09-09T15:31:54;21.20;99.90
21216;DHT22;10765;50.954;5.322;2022-09-09T15:34:22;21.20;99.90
21216;DHT22;10765;50.954;5.322;2022-09-09T15:36:50;21.20;99.90
21216;DHT22;10765;50.954;5.322;2022-09-09T15:39:17;21.40;99.90
21216;DHT22;10765;50.954;5.322;2022-09-09T15:41:46;21.60;99.90
21216;DHT22;10765;50.954;5.322;2022-09-09T15:44:14;21.60;99.90
21216;DHT22;10765;50.954;5.322;2022-09-09T15:46:42;21.60;99.90
21216;DHT22;10765;50.954;5.322;2022-09-09T15:49:11;21.90;99.90
21216;DHT22;10765;50.954;5.322;2022-09-09T15:51:41;22.10;99.90
21216;DHT22;10765;50.954;5.322;2022-09-09T15:54:09;22.20;99.90
21216;DHT22;10765;50.954;5.322;2022-09-09T15:56:37;21.90;99.90
21216;DHT22;10765;50.954;5.322;2022-09-09T15:59:04;22.30;99.90
21216;DHT22;10765;50.954;5.322;2022-09-09T16:01:32;22.40;99.90